createdAt,value
2022-09-14T00:01:41.030Z,99.90
2022-09-14T00:04:42.917Z,99.90
2022-09-14T00:07:44.797Z,99.90
2022-09-14T00:10:46.994Z,99.90
2022-09-14T00:13:49.064Z,99.90
2022-09-14T00:22:55.960Z,99.90
2022-09-14T00:26:07.420Z,99.90
2022-09-14T00:29:10.939Z,99.90
2022-09-14T00:32:12.869Z,99.90
2022-09-14T00:35:14.811Z,99.90
2022-09-14T00:38:16.669Z,99.90
2022-09-14T00:41:21.533Z,99.90
2022-09-14T00:50:27.955Z,99.90
2022-09-14T00:53:30.837Z,99.90
2022-09-14T00:59:36.764Z,99.90
2022-09-14T01:02:39.705Z,99.90
2022-09-14T01:09:00.619Z,99.90
2022-09-14T01:15:23.095Z,99.90
2022-09-14T01:18:29.087Z,99.90
2022-09-14T01:21:39.435Z,99.90
2022-09-14T01:25:04.844Z,99.90
2022-09-14T01:28:17.039Z,99.90
2022-09-14T01:31:27.254Z,99.90
2022-09-14T01:35:07.584Z,99.90
2022-09-14T01:38:16.417Z,99.90
2022-09-14T01:41:24.016Z,99.90
2022-09-14T01:44:34.296Z,99.90
2022-09-14T01:47:43.935Z,99.90
2022-09-14T01:50:53.577Z,99.90
2022-09-14T01:54:03.189Z,99.90
2022-09-14T01:57:21.606Z,99.90
2022-09-14T02:00:23.797Z,99.90
2022-09-14T02:03:29.878Z,99.90
2022-09-14T02:12:36.827Z,99.90
2022-09-14T02:15:39.539Z,99.90
2022-09-14T02:24:46.752Z,99.90
2022-09-14T02:31:17.521Z,99.90
2022-09-14T02:34:40.636Z,99.90
2022-09-14T02:38:24.388Z,99.90
2022-09-14T02:42:03.247Z,99.90
2022-09-14T02:45:50.942Z,99.90
2022-09-14T02:48:59.386Z,99.90
2022-09-14T02:52:11.531Z,99.90
2022-09-14T02:55:18.135Z,99.90
2022-09-14T02:58:20.059Z,99.90
2022-09-14T03:01:23.561Z,99.90
2022-09-14T03:04:25.533Z,99.90
2022-09-14T03:07:27.389Z,99.90
2022-09-14T03:10:29.628Z,99.90
2022-09-14T03:13:31.557Z,99.90
2022-09-14T03:16:33.517Z,99.90
2022-09-14T03:22:37.701Z,99.90
2022-09-14T03:25:41.603Z,99.90
2022-09-14T03:28:44.062Z,99.90
2022-09-14T03:31:45.889Z,99.90
2022-09-14T03:40:52.553Z,99.90
2022-09-14T03:43:54.530Z,99.90
2022-09-14T03:46:56.428Z,99.90
2022-09-14T03:49:58.356Z,99.90
2022-09-14T03:56:07.684Z,99.90
2022-09-14T03:59:09.776Z,99.90
2022-09-14T04:05:14.064Z,99.90
2022-09-14T04:11:20.936Z,99.90
2022-09-14T04:14:24.003Z,99.90
2022-09-14T04:17:25.843Z,99.90
2022-09-14T04:20:27.682Z,99.90
2022-09-14T04:23:29.647Z,99.90
2022-09-14T04:26:32.448Z,99.90
2022-09-14T04:29:34.370Z,99.90
2022-09-14T04:32:36.216Z,99.90
2022-09-14T04:35:38.067Z,99.90
2022-09-14T04:44:45.251Z,99.90
2022-09-14T04:47:47.112Z,99.90
2022-09-14T04:50:48.955Z,99.90
2022-09-14T04:53:53.195Z,99.90
2022-09-14T04:56:55.097Z,99.90
2022-09-14T05:02:59.251Z,99.90
2022-09-14T05:06:06.068Z,99.90
2022-09-14T05:09:12.063Z,99.90
2022-09-14T05:15:16.278Z,99.90
2022-09-14T05:18:19.130Z,99.90
2022-09-14T05:21:22.393Z,99.90
2022-09-14T05:33:53.976Z,99.90
2022-09-14T05:36:55.873Z,99.90
2022-09-14T05:46:05.723Z,99.90
2022-09-14T05:52:09.982Z,99.90
2022-09-14T06:01:22.414Z,99.90
2022-09-14T06:10:29.360Z,99.90
2022-09-14T06:16:34.627Z,99.90
2022-09-14T06:31:45.983Z,99.90
2022-09-14T06:40:57.023Z,99.90
2022-09-14T06:44:00.071Z,99.90
2022-09-14T06:50:04.700Z,99.90
2022-09-14T06:56:08.922Z,99.90
2022-09-14T06:59:12.595Z,99.90
2022-09-14T07:02:14.618Z,99.90
2022-09-14T07:08:19.183Z,99.90
2022-09-14T07:11:24.024Z,99.90
2022-09-14T07:14:29.241Z,99.90
2022-09-14T07:20:35.764Z,99.90
2022-09-14T07:23:40.149Z,99.90
2022-09-14T07:26:42.501Z,99.90
2022-09-14T07:29:44.300Z,99.90
2022-09-14T07:35:48.456Z,99.90
2022-09-14T07:41:55.300Z,99.90
2022-09-14T07:44:57.167Z,99.90
2022-09-14T07:47:59.085Z,99.90
2022-09-14T07:51:09.279Z,99.90
2022-09-14T07:54:13.442Z,99.90
2022-09-14T08:00:17.942Z,99.30
2022-09-14T08:06:23.509Z,99.50
2022-09-14T08:12:27.583Z,99.20
2022-09-14T08:18:33.235Z,99.70
2022-09-14T08:24:37.750Z,99.90
2022-09-14T08:27:39.677Z,99.60
2022-09-14T08:30:41.532Z,99.90
2022-09-14T08:33:46.072Z,98.50
2022-09-14T08:39:51.732Z,99.00
2022-09-14T08:42:57.892Z,99.50
2022-09-14T08:46:05.277Z,98.90
2022-09-14T08:49:31.288Z,98.80
2022-09-14T08:56:00.682Z,99.20
2022-09-14T08:59:23.906Z,98.70
2022-09-14T09:02:41.025Z,98.40
2022-09-14T09:06:03.116Z,98.20
2022-09-14T09:09:30.109Z,98.40
2022-09-14T09:12:54.152Z,96.20
2022-09-14T09:16:00.270Z,95.80
2022-09-14T09:19:07.780Z,96.50
2022-09-14T09:22:14.988Z,95.20
2022-09-14T09:25:22.312Z,93.70
2022-09-14T09:28:26.018Z,93.80
2022-09-14T09:31:40.232Z,94.10
2022-09-14T09:37:44.775Z,95.30
2022-09-14T09:40:50.757Z,95.00
2022-09-14T09:44:02.838Z,93.00
2022-09-14T09:47:04.823Z,93.40
2022-09-14T09:53:16.827Z,93.80
2022-09-14T09:56:22.930Z,94.20
2022-09-14T09:59:41.667Z,93.70
2022-09-14T10:05:45.728Z,94.60
2022-09-14T10:12:01.926Z,94.30
2022-09-14T10:15:08.665Z,94.40
2022-09-14T10:21:18.370Z,95.20
2022-09-14T10:27:38.235Z,94.30
2022-09-14T10:30:48.392Z,95.60
2022-09-14T10:33:54.770Z,95.00
2022-09-14T10:37:13.754Z,94.60
2022-09-14T10:40:19.685Z,94.50
2022-09-14T10:43:44.809Z,93.50
2022-09-14T10:46:55.015Z,93.80
2022-09-14T10:53:17.892Z,93.60
2022-09-14T10:56:24.441Z,92.50
2022-09-14T11:03:00.487Z,91.10
2022-09-14T11:06:08.340Z,90.90
2022-09-14T11:09:28.159Z,90.50
2022-09-14T11:12:53.748Z,87.00
2022-09-14T11:19:27.665Z,89.40
2022-09-14T11:22:57.884Z,87.10
2022-09-14T11:26:03.763Z,85.40
2022-09-14T11:29:27.819Z,86.30
2022-09-14T11:32:38.765Z,88.30
2022-09-14T11:36:00.753Z,87.30
2022-09-14T11:39:16.236Z,90.50
2022-09-14T11:42:27.534Z,90.30
2022-09-14T11:45:35.578Z,90.80
2022-09-14T11:48:59.929Z,90.70
2022-09-14T11:52:28.187Z,89.40
2022-09-14T11:58:33.060Z,89.30
2022-09-14T12:01:37.737Z,89.80
2022-09-14T12:05:05.154Z,89.50
2022-09-14T12:08:28.197Z,89.80
2022-09-14T12:11:36.119Z,89.00
2022-09-14T12:17:41.433Z,90.40
2022-09-14T12:21:20.820Z,88.40
2022-09-14T12:24:23.135Z,89.90
2022-09-14T12:27:25.088Z,88.70
2022-09-14T12:33:44.498Z,88.30
2022-09-14T12:40:07.531Z,90.20
2022-09-14T12:43:34.445Z,89.00
2022-09-14T12:46:37.664Z,90.60
2022-09-14T12:49:40.050Z,90.00
2022-09-14T12:53:06.754Z,90.00
2022-09-14T12:56:22.965Z,89.30
2022-09-14T12:59:48.623Z,89.00
2022-09-14T13:08:56.713Z,86.20
2022-09-14T13:15:07.530Z,86.90
2022-09-14T13:21:23.118Z,86.00
2022-09-14T13:24:32.149Z,86.00
2022-09-14T13:27:36.859Z,84.40
2022-09-14T13:33:51.369Z,84.80
2022-09-14T13:39:57.379Z,82.10
2022-09-14T13:43:00.170Z,82.60
2022-09-14T13:49:07.619Z,81.70
2022-09-14T13:52:38.985Z,80.40
2022-09-14T13:59:12.002Z,80.00
2022-09-14T14:05:25.050Z,82.30
2022-09-14T14:08:35.073Z,82.00
2022-09-14T14:11:51.182Z,80.90
2022-09-14T14:14:58.603Z,82.90
2022-09-14T14:21:14.186Z,81.80
2022-09-14T14:24:26.597Z,82.10
2022-09-14T14:27:30.650Z,81.30
2022-09-14T14:30:37.694Z,81.10
2022-09-14T14:33:50.836Z,80.70
2022-09-14T14:42:59.370Z,81.20
2022-09-14T14:46:02.086Z,81.30
2022-09-14T14:52:06.158Z,80.90
2022-09-14T14:55:08.493Z,81.90
2022-09-14T14:58:15.992Z,82.90
2022-09-14T15:10:25.953Z,81.40
2022-09-14T15:13:27.803Z,81.10
2022-09-14T15:16:29.693Z,83.30
2022-09-14T15:19:31.617Z,82.80
2022-09-14T15:22:33.453Z,81.60
2022-09-14T15:25:35.357Z,83.40
2022-09-14T15:31:40.114Z,84.40
2022-09-14T15:37:44.180Z,87.30
2022-09-14T15:40:46.047Z,85.10
2022-09-14T15:43:47.929Z,86.70
2022-09-14T15:46:50.810Z,86.40
2022-09-14T15:52:58.058Z,87.60
2022-09-14T16:11:14.827Z,90.60
2022-09-14T16:17:18.863Z,90.90
2022-09-14T16:23:22.925Z,91.00
2022-09-14T16:26:27.580Z,91.60
2022-09-14T16:32:31.677Z,91.90
2022-09-14T16:35:33.575Z,92.10
2022-09-14T16:38:36.256Z,92.30
2022-09-14T16:41:38.417Z,92.70
2022-09-14T16:44:40.292Z,92.60
2022-09-14T16:47:42.166Z,92.80
2022-09-14T16:50:44.079Z,92.90
2022-09-14T16:53:47.169Z,92.90
2022-09-14T16:59:51.586Z,93.30
2022-09-14T17:02:53.452Z,93.60
2022-09-14T17:06:01.370Z,93.10
2022-09-14T17:09:09.464Z,93.60
2022-09-14T17:15:13.795Z,93.90
2022-09-14T17:18:15.670Z,94.10
2022-09-14T17:21:23.647Z,94.30
2022-09-14T17:24:25.541Z,94.10
2022-09-14T17:27:27.451Z,94.00
2022-09-14T17:30:29.307Z,94.30
2022-09-14T17:33:31.899Z,94.30
2022-09-14T17:36:34.255Z,94.90
2022-09-14T17:51:46.200Z,95.10
2022-09-14T17:54:48.067Z,95.30
2022-09-14T17:57:50.255Z,95.50
2022-09-14T18:01:08.081Z,95.50
2022-09-14T18:04:12.482Z,96.00
2022-09-14T18:07:14.871Z,95.90
2022-09-14T18:10:17.056Z,96.00
2022-09-14T18:13:19.230Z,95.90
2022-09-14T18:16:23.025Z,96.10
2022-09-14T18:19:25.551Z,96.60
2022-09-14T18:22:27.900Z,96.30
2022-09-14T18:25:30.189Z,96.90
2022-09-14T18:31:35.487Z,96.70
2022-09-14T18:34:37.658Z,96.60
2022-09-14T18:37:40.931Z,96.80
2022-09-14T18:40:43.436Z,96.40
2022-09-14T18:43:47.446Z,96.70
2022-09-14T18:56:06.696Z,96.40
2022-09-14T18:59:12.553Z,96.60
2022-09-14T19:02:14.859Z,96.90
2022-09-14T19:08:22.469Z,96.70
2022-09-14T19:11:27.791Z,96.60
2022-09-14T19:14:29.892Z,96.70
2022-09-14T19:17:32.171Z,96.90
2022-09-14T19:21:02.473Z,96.40
2022-09-14T19:24:09.230Z,96.50
2022-09-14T19:30:14.387Z,96.70
2022-09-14T19:33:16.595Z,96.70
2022-09-14T19:36:21.097Z,97.10
2022-09-14T19:39:24.948Z,96.80
2022-09-14T19:42:27.669Z,96.80
2022-09-14T19:45:29.933Z,96.90
2022-09-14T19:48:33.303Z,96.80
2022-09-14T19:51:35.584Z,96.70
2022-09-14T20:00:42.910Z,96.40
2022-09-14T20:03:46.112Z,96.40
2022-09-14T20:09:50.916Z,95.80
2022-09-14T20:12:53.859Z,96.20
2022-09-14T20:15:55.891Z,96.10
2022-09-14T20:18:59.966Z,96.10
2022-09-14T20:22:02.252Z,96.00
2022-09-14T20:25:05.414Z,95.80
2022-09-14T20:28:07.207Z,96.00
2022-09-14T20:31:12.807Z,96.00
2022-09-14T20:34:15.994Z,95.30
2022-09-14T20:37:17.892Z,95.30
2022-09-14T20:40:19.950Z,95.40
2022-09-14T20:43:21.928Z,95.20
2022-09-14T20:46:33.203Z,95.50
2022-09-14T20:52:37.374Z,95.10
2022-09-14T21:01:45.969Z,95.30
2022-09-14T21:04:47.847Z,95.20
2022-09-14T21:07:52.882Z,95.40
2022-09-14T21:10:58.039Z,95.20
2022-09-14T21:14:00.010Z,95.20
2022-09-14T21:17:01.895Z,94.80
2022-09-14T21:20:04.244Z,95.00
2022-09-14T21:26:10.441Z,94.80
2022-09-14T21:29:15.494Z,95.10
2022-09-14T21:32:17.523Z,95.00
2022-09-14T21:35:20.303Z,95.10
2022-09-14T21:38:22.160Z,95.00
2022-09-14T21:41:26.531Z,94.90
2022-09-14T21:44:33.741Z,94.80
2022-09-14T21:47:35.611Z,94.60
2022-09-14T21:50:37.470Z,94.40
2022-09-14T21:56:44.059Z,94.60
2022-09-14T21:59:45.929Z,94.40
2022-09-14T22:02:47.919Z,94.30
2022-09-14T22:06:03.010Z,94.40
2022-09-14T22:09:04.928Z,94.30
2022-09-14T22:15:09.631Z,94.20
2022-09-14T22:18:11.371Z,94.20
2022-09-14T22:21:13.514Z,94.60
2022-09-14T22:24:20.035Z,94.40
2022-09-14T22:27:21.904Z,95.10
2022-09-14T22:30:23.733Z,94.50
2022-09-14T22:33:25.597Z,94.30
2022-09-14T22:36:27.988Z,94.50
2022-09-14T22:39:29.754Z,94.40
2022-09-14T22:42:31.696Z,94.40
2022-09-14T22:45:33.476Z,94.30
2022-09-14T22:51:38.649Z,93.20
2022-09-14T22:54:40.482Z,93.10
2022-09-14T22:57:42.352Z,93.00
2022-09-14T23:06:48.958Z,93.00
2022-09-14T23:09:50.869Z,92.70
2022-09-14T23:12:52.904Z,93.00
2022-09-14T23:19:01.146Z,92.80
2022-09-14T23:25:05.682Z,92.40
2022-09-14T23:28:10.964Z,92.40
2022-09-14T23:34:15.314Z,92.20
2022-09-14T23:37:17.576Z,92.50
2022-09-14T23:40:19.773Z,92.50
2022-09-14T23:46:24.100Z,92.70
2022-09-14T23:52:28.566Z,93.00
2022-09-14T23:55:30.433Z,93.30
2022-09-14T23:58:32.740Z,93.30
